createdAt,value
2019-02-06T00:02:47.539Z,27.77
2019-02-06T00:05:35.956Z,30.80
2019-02-06T00:08:23.994Z,30.50
2019-02-06T00:11:12.927Z,30.17
2019-02-06T00:14:01.034Z,28.90
2019-02-06T00:16:49.310Z,29.00
2019-02-06T00:19:38.159Z,29.33
2019-02-06T00:22:26.303Z,30.57
2019-02-06T00:25:15.051Z,29.47
2019-02-06T00:28:04.034Z,29.40
2019-02-06T00:30:51.770Z,28.30
2019-02-06T00:33:40.051Z,30.13
2019-02-06T00:36:28.269Z,29.17
2019-02-06T00:39:16.704Z,29.03
2019-02-06T00:42:04.367Z,28.07
2019-02-06T00:44:53.650Z,28.27
2019-02-06T00:47:41.575Z,27.80
2019-02-06T00:50:30.059Z,29.70
2019-02-06T00:53:18.353Z,29.53
2019-02-06T00:56:06.634Z,29.53
2019-02-06T00:58:54.902Z,27.20
2019-02-06T01:01:43.163Z,27.80
2019-02-06T01:04:31.694Z,29.67
2019-02-06T01:07:19.667Z,29.90
2019-02-06T01:10:08.691Z,28.40
2019-02-06T01:12:56.712Z,27.57
2019-02-06T01:15:44.880Z,31.00
2019-02-06T01:18:33.055Z,27.90
2019-02-06T01:21:21.064Z,27.37
2019-02-06T01:24:09.691Z,26.07
2019-02-06T01:26:57.991Z,26.53
2019-02-06T01:29:46.975Z,27.30
2019-02-06T01:32:34.686Z,27.10
2019-02-06T01:35:22.906Z,25.00
2019-02-06T01:38:11.182Z,25.50
2019-02-06T01:40:59.783Z,24.07
2019-02-06T01:43:48.277Z,25.20
2019-02-06T01:46:37.071Z,24.43
2019-02-06T01:49:25.611Z,25.93
2019-02-06T01:52:13.192Z,24.77
2019-02-06T01:55:02.198Z,25.90
2019-02-06T01:57:50.302Z,23.97
2019-02-06T02:00:39.492Z,23.40
2019-02-06T02:03:27.364Z,25.67
2019-02-06T02:06:15.699Z,23.07
2019-02-06T02:09:10.375Z,24.90
2019-02-06T02:11:58.551Z,24.10
2019-02-06T02:14:47.831Z,25.20
2019-02-06T02:17:36.783Z,24.00
2019-02-06T02:20:25.222Z,23.60
2019-02-06T02:23:13.770Z,24.10
2019-02-06T02:26:01.982Z,23.80
2019-02-06T02:28:49.861Z,23.30
2019-02-06T02:31:38.079Z,22.67
2019-02-06T02:34:26.547Z,23.23
2019-02-06T02:37:14.618Z,22.23
2019-02-06T02:40:03.950Z,21.70
2019-02-06T02:42:52.399Z,20.80
2019-02-06T02:45:40.471Z,20.63
2019-02-06T02:48:28.538Z,23.00
2019-02-06T02:51:17.299Z,21.10
2019-02-06T02:54:05.387Z,21.10
2019-02-06T02:56:53.217Z,19.90
2019-02-06T02:59:41.240Z,19.17
2019-02-06T03:02:43.455Z,18.93
2019-02-06T03:05:33.810Z,19.47
2019-02-06T03:08:22.611Z,19.60
2019-02-06T03:11:11.075Z,19.17
2019-02-06T03:13:59.886Z,18.50
2019-02-06T03:16:48.698Z,20.80
2019-02-06T03:19:37.225Z,18.53
2019-02-06T03:22:25.450Z,17.60
2019-02-06T03:25:14.045Z,17.20
2019-02-06T03:28:02.259Z,18.70
2019-02-06T03:30:50.609Z,17.43
2019-02-06T03:33:39.190Z,15.40
2019-02-06T03:36:39.563Z,13.40
2019-02-06T03:39:17.118Z,12.47
2019-02-06T03:42:05.684Z,12.50
2019-02-06T03:44:54.696Z,11.77
2019-02-06T03:47:43.155Z,10.80
2019-02-06T03:50:31.622Z,9.63
2019-02-06T03:53:20.091Z,9.43
2019-02-06T03:56:08.121Z,10.10
2019-02-06T03:58:56.083Z,9.93
2019-02-06T04:01:44.887Z,9.93
2019-02-06T04:04:33.208Z,9.30
2019-02-06T04:07:21.861Z,10.20
2019-02-06T04:10:12.211Z,9.83
2019-02-06T04:13:00.144Z,10.40
2019-02-06T04:15:48.828Z,9.13
2019-02-06T04:18:36.994Z,10.40
2019-02-06T04:21:25.235Z,9.03
2019-02-06T04:24:13.321Z,10.73
2019-02-06T04:27:02.090Z,10.43
2019-02-06T04:29:50.099Z,10.87
2019-02-06T04:32:38.194Z,10.00
2019-02-06T04:35:26.507Z,10.30
2019-02-06T04:38:14.822Z,9.60
2019-02-06T04:41:03.373Z,10.00
2019-02-06T04:43:51.376Z,10.63
2019-02-06T04:46:40.632Z,9.57
2019-02-06T04:49:28.977Z,10.30
2019-02-06T04:52:17.123Z,11.40
2019-02-06T04:55:06.383Z,10.77
2019-02-06T04:57:54.747Z,9.90
2019-02-06T05:00:43.014Z,10.93
2019-02-06T05:03:31.338Z,9.77
2019-02-06T05:06:19.769Z,9.57
2019-02-06T05:09:08.625Z,10.63
2019-02-06T05:11:57.547Z,10.67
2019-02-06T05:14:45.441Z,9.40
2019-02-06T05:17:33.650Z,9.73
2019-02-06T05:20:31.007Z,10.17
2019-02-06T05:23:19.551Z,10.30
2019-02-06T05:26:07.690Z,10.23
2019-02-06T05:28:55.147Z,10.40
2019-02-06T05:31:43.689Z,10.27
2019-02-06T05:34:32.030Z,10.90
2019-02-06T05:37:31.719Z,9.00
2019-02-06T05:40:11.789Z,11.43
2019-02-06T05:42:59.987Z,9.70
2019-02-06T05:45:47.946Z,10.93
2019-02-06T05:48:36.032Z,11.73
2019-02-06T05:51:24.122Z,10.83
2019-02-06T05:54:12.463Z,9.93
2019-02-06T05:57:00.252Z,10.27
2019-02-06T05:59:48.608Z,13.40
2019-02-06T06:02:37.103Z,11.53
2019-02-06T06:05:25.473Z,11.20
2019-02-06T06:08:13.578Z,10.33
2019-02-06T06:11:01.795Z,10.20
2019-02-06T06:13:50.367Z,10.50
2019-02-06T06:16:38.709Z,10.47
2019-02-06T06:19:27.011Z,10.53
2019-02-06T06:22:15.164Z,9.80
2019-02-06T06:25:04.004Z,10.40
2019-02-06T06:27:51.986Z,11.00
2019-02-06T06:30:40.171Z,11.43
2019-02-06T06:33:28.472Z,9.80
2019-02-06T06:36:16.779Z,10.40
2019-02-06T06:39:07.558Z,10.60
2019-02-06T06:41:55.618Z,11.50
2019-02-06T06:44:44.252Z,10.30
2019-02-06T06:47:32.747Z,9.40
2019-02-06T06:50:22.991Z,10.67
2019-02-06T06:53:11.331Z,11.03
2019-02-06T06:55:59.622Z,10.03
2019-02-06T06:58:48.075Z,9.60
2019-02-06T07:01:36.103Z,9.60
2019-02-06T07:04:24.383Z,11.03
2019-02-06T07:07:12.926Z,9.83
2019-02-06T07:10:01.758Z,10.57
2019-02-06T07:12:49.792Z,10.73
2019-02-06T07:15:38.094Z,10.60
2019-02-06T07:18:26.466Z,9.93
2019-02-06T07:21:14.456Z,10.47
2019-02-06T07:24:02.964Z,10.17
2019-02-06T07:26:50.619Z,9.53
2019-02-06T07:29:39.586Z,10.53
2019-02-06T07:32:27.822Z,10.63
2019-02-06T07:35:16.431Z,10.00
2019-02-06T07:38:05.025Z,9.70
2019-02-06T07:40:53.509Z,10.23
2019-02-06T07:43:42.179Z,10.50
2019-02-06T07:46:30.425Z,10.57
2019-02-06T07:49:18.240Z,10.70
2019-02-06T07:52:06.467Z,11.33
2019-02-06T07:54:54.922Z,10.63
2019-02-06T07:57:43.539Z,10.90
2019-02-06T08:00:31.187Z,10.90
2019-02-06T08:03:19.500Z,10.27
2019-02-06T08:06:08.098Z,10.50
2019-02-06T08:08:56.478Z,11.23
2019-02-06T08:11:44.906Z,10.87
2019-02-06T08:14:32.867Z,10.23
2019-02-06T08:17:21.170Z,10.23
2019-02-06T08:20:11.842Z,10.83
2019-02-06T08:22:59.883Z,11.23
2019-02-06T08:25:48.381Z,12.00
2019-02-06T08:28:36.583Z,11.50
2019-02-06T08:31:24.354Z,10.93
2019-02-06T08:34:13.170Z,11.93
2019-02-06T08:37:01.328Z,10.80
2019-02-06T08:39:49.659Z,11.33
2019-02-06T08:42:37.684Z,11.00
2019-02-06T08:45:26.934Z,9.90
2019-02-06T08:48:15.283Z,11.17
2019-02-06T08:51:03.586Z,9.50
2019-02-06T08:53:51.567Z,10.00
2019-02-06T08:56:39.887Z,10.53
2019-02-06T08:59:28.052Z,9.60
2019-02-06T09:02:16.550Z,9.80
2019-02-06T09:05:07.533Z,10.33
2019-02-06T09:07:55.766Z,9.97
2019-02-06T09:10:44.050Z,10.60
2019-02-06T09:13:32.507Z,10.10
2019-02-06T09:16:20.678Z,10.17
2019-02-06T09:19:09.114Z,9.57
2019-02-06T09:21:57.157Z,10.10
2019-02-06T09:24:45.507Z,9.70
2019-02-06T09:27:33.794Z,8.97
2019-02-06T09:30:24.291Z,9.80
2019-02-06T09:33:12.954Z,9.40
2019-02-06T09:36:00.587Z,9.30
2019-02-06T09:38:49.075Z,9.40
2019-02-06T09:41:37.715Z,8.60
2019-02-06T09:44:25.239Z,10.17
2019-02-06T09:47:14.204Z,9.53
2019-02-06T09:50:02.491Z,8.83
2019-02-06T09:52:51.219Z,8.73
2019-02-06T09:55:39.659Z,7.47
2019-02-06T09:58:27.859Z,9.07
2019-02-06T10:01:16.912Z,9.97
2019-02-06T10:04:05.111Z,8.50
2019-02-06T10:06:54.460Z,8.07
2019-02-06T10:09:43.149Z,7.47
2019-02-06T10:12:30.683Z,10.63
2019-02-06T10:15:21.465Z,11.73
2019-02-06T10:18:10.171Z,8.80
2019-02-06T10:20:57.958Z,8.67
2019-02-06T10:23:46.394Z,8.93
2019-02-06T10:26:34.328Z,10.40
2019-02-06T10:29:22.742Z,8.87
2019-02-06T10:32:11.344Z,7.20
2019-02-06T10:34:59.876Z,8.60
2019-02-06T10:37:47.835Z,7.50
2019-02-06T10:40:35.864Z,6.90
2019-02-06T10:43:31.782Z,7.10
2019-02-06T10:46:14.170Z,8.20
2019-02-06T10:49:02.591Z,6.60
2019-02-06T10:51:51.138Z,6.40
2019-02-06T10:54:39.867Z,6.00
2019-02-06T10:57:28.209Z,6.60
2019-02-06T11:00:22.556Z,5.50
2019-02-06T11:03:11.894Z,5.50
2019-02-06T11:06:00.788Z,5.43
2019-02-06T11:08:48.951Z,5.90
2019-02-06T11:11:36.430Z,5.80
2019-02-06T11:14:24.639Z,5.43
2019-02-06T11:17:13.163Z,5.40
2019-02-06T11:20:01.052Z,5.23
2019-02-06T11:22:49.779Z,5.40
2019-02-06T11:25:37.990Z,6.30
2019-02-06T11:28:26.090Z,5.63
2019-02-06T11:31:15.003Z,5.73
2019-02-06T11:34:03.598Z,6.80
2019-02-06T11:36:51.326Z,6.27
2019-02-06T11:39:39.602Z,5.17
2019-02-06T11:42:28.214Z,5.07
2019-02-06T11:45:20.664Z,5.77
2019-02-06T11:48:08.887Z,5.73
2019-02-06T11:50:57.236Z,5.30
2019-02-06T11:53:45.715Z,5.77
2019-02-06T11:56:34.159Z,5.97
2019-02-06T11:59:21.955Z,6.67
2019-02-06T12:02:10.487Z,5.70
2019-02-06T12:04:58.954Z,5.70
2019-02-06T12:07:47.527Z,6.50
2019-02-06T12:10:35.971Z,5.80
2019-02-06T12:13:24.755Z,5.70
2019-02-06T12:16:13.356Z,6.40
2019-02-06T12:19:01.208Z,5.70
2019-02-06T12:21:48.895Z,5.37
2019-02-06T12:24:36.791Z,5.80
2019-02-06T12:27:24.671Z,5.30
2019-02-06T12:30:27.850Z,5.50
2019-02-06T12:33:15.727Z,6.00
2019-02-06T12:36:03.907Z,5.30
2019-02-06T12:38:53.930Z,5.90
2019-02-06T12:41:42.563Z,6.33
2019-02-06T12:44:30.602Z,5.10
2019-02-06T12:47:18.933Z,6.03
2019-02-06T12:50:08.385Z,6.03
2019-02-06T12:52:57.481Z,5.80
2019-02-06T12:55:46.167Z,6.50
2019-02-06T12:58:34.875Z,5.70
2019-02-06T13:01:23.975Z,5.03
2019-02-06T13:04:11.792Z,5.47
2019-02-06T13:07:00.475Z,5.20
2019-02-06T13:09:48.837Z,5.80
2019-02-06T13:12:37.691Z,5.70
2019-02-06T13:15:26.450Z,5.67
2019-02-06T13:18:15.090Z,5.53
2019-02-06T13:21:03.618Z,5.73
2019-02-06T13:23:51.616Z,4.80
2019-02-06T13:26:40.067Z,6.13
2019-02-06T13:29:28.287Z,5.53
2019-02-06T13:32:17.406Z,5.10
2019-02-06T13:35:07.065Z,5.70
2019-02-06T13:37:55.775Z,5.13
2019-02-06T13:40:45.946Z,5.67
2019-02-06T13:43:35.103Z,6.47
2019-02-06T13:46:23.730Z,5.60
2019-02-06T13:49:12.388Z,6.07
2019-02-06T13:52:00.416Z,6.27
2019-02-06T13:54:49.186Z,5.90
2019-02-06T13:57:37.907Z,5.93
2019-02-06T14:00:28.714Z,6.07
2019-02-06T14:03:16.889Z,6.17
2019-02-06T14:06:05.447Z,6.40
2019-02-06T14:08:53.635Z,5.90
2019-02-06T14:11:42.618Z,6.60
2019-02-06T14:14:31.808Z,6.37
2019-02-06T14:17:20.560Z,5.90
2019-02-06T14:20:12.535Z,6.17
2019-02-06T14:23:04.097Z,6.20
2019-02-06T14:26:29.967Z,6.20
2019-02-06T14:29:56.390Z,6.43
2019-02-06T14:33:08.163Z,5.97
2019-02-06T14:36:17.158Z,6.13
2019-02-06T14:39:14.179Z,5.70
2019-02-06T14:42:45.156Z,5.80
2019-02-06T14:46:13.646Z,6.67
2019-02-06T14:49:46.186Z,6.10
2019-02-06T14:52:47.813Z,5.27
2019-02-06T14:56:22.035Z,5.17
2019-02-06T14:59:55.679Z,5.20
2019-02-06T15:03:23.931Z,5.40
2019-02-06T15:06:56.542Z,6.00
2019-02-06T15:10:18.018Z,6.37
2019-02-06T15:13:40.544Z,6.87
2019-02-06T15:16:50.007Z,6.57
2019-02-06T15:19:59.931Z,6.03
2019-02-06T15:23:33.173Z,7.33
2019-02-06T15:26:51.843Z,6.27
2019-02-06T15:30:11.201Z,5.20
2019-02-06T15:33:19.056Z,5.83
2019-02-06T15:36:38.470Z,6.17
2019-02-06T15:39:42.771Z,6.67
2019-02-06T15:42:56.367Z,7.50
2019-02-06T15:46:35.257Z,6.10
2019-02-06T15:50:08.619Z,7.00
2019-02-06T15:53:52.895Z,7.37
2019-02-06T15:56:58.313Z,5.63
2019-02-06T16:00:33.846Z,5.17
2019-02-06T16:03:51.830Z,5.33
2019-02-06T16:06:55.079Z,5.80
2019-02-06T16:10:18.715Z,5.90
2019-02-06T16:13:21.543Z,6.30
2019-02-06T16:16:59.909Z,6.50
2019-02-06T16:20:19.679Z,5.87
2019-02-06T16:23:39.270Z,6.20
2019-02-06T16:26:53.434Z,6.00
2019-02-06T16:30:16.617Z,6.13
2019-02-06T16:33:40.015Z,5.90
2019-02-06T16:37:16.258Z,6.80
2019-02-06T16:40:30.580Z,5.77
2019-02-06T16:43:54.616Z,4.93
2019-02-06T16:47:27.510Z,7.60
2019-02-06T16:51:03.503Z,6.23
2019-02-06T16:54:34.294Z,6.53
2019-02-06T16:57:55.040Z,6.13
2019-02-06T17:01:28.635Z,7.30
2019-02-06T17:04:37.490Z,6.67
2019-02-06T17:07:55.516Z,7.00
2019-02-06T17:11:05.115Z,8.27
2019-02-06T17:14:15.628Z,7.00
2019-02-06T17:17:29.386Z,7.33
2019-02-06T17:20:41.443Z,7.70
2019-02-06T17:23:57.071Z,7.83
2019-02-06T17:27:26.507Z,8.50
2019-02-06T17:30:38.250Z,10.67
2019-02-06T17:33:59.303Z,9.40
2019-02-06T17:37:40.205Z,10.00
2019-02-06T17:40:59.482Z,7.53
2019-02-06T17:44:16.410Z,7.50
2019-02-06T17:47:43.800Z,6.53
2019-02-06T17:51:04.515Z,6.90
2019-02-06T17:54:27.279Z,6.87
2019-02-06T17:57:15.322Z,6.80
2019-02-06T18:00:06.411Z,7.10
2019-02-06T18:02:54.767Z,6.80
2019-02-06T18:05:42.943Z,6.37
2019-02-06T18:08:31.547Z,7.40
2019-02-06T18:11:19.851Z,5.10
2019-02-06T18:14:08.794Z,9.57
2019-02-06T18:16:56.766Z,6.80
2019-02-06T18:19:44.912Z,7.73
2019-02-06T18:22:33.036Z,7.30
2019-02-06T18:25:21.270Z,6.73
2019-02-06T18:28:11.808Z,5.70
2019-02-06T18:30:59.054Z,7.10
2019-02-06T18:33:47.744Z,6.63
2019-02-06T18:36:36.058Z,5.43
2019-02-06T18:39:24.194Z,6.07
2019-02-06T18:42:12.340Z,5.73
2019-02-06T18:45:00.468Z,5.80
2019-02-06T18:47:50.383Z,6.70
2019-02-06T18:50:38.839Z,6.90
2019-02-06T18:53:26.814Z,8.67
2019-02-06T18:56:15.107Z,6.30
2019-02-06T18:59:04.519Z,5.90
2019-02-06T19:01:55.427Z,6.10
2019-02-06T19:04:42.414Z,6.10
2019-02-06T19:07:30.430Z,10.27
2019-02-06T19:10:19.892Z,6.37
2019-02-06T19:13:08.494Z,6.80
2019-02-06T19:15:56.895Z,10.40
2019-02-06T19:18:45.439Z,5.60
2019-02-06T19:21:34.237Z,5.90
2019-02-06T19:24:22.906Z,6.30
2019-02-06T19:27:14.372Z,6.83
2019-02-06T19:30:01.725Z,5.80
2019-02-06T19:32:49.668Z,6.10
2019-02-06T19:35:37.945Z,7.37
2019-02-06T19:38:26.059Z,6.20
2019-02-06T19:41:14.192Z,6.57
2019-02-06T19:44:02.527Z,6.20
2019-02-06T19:46:50.898Z,5.20
2019-02-06T19:49:39.054Z,5.90
2019-02-06T19:52:27.655Z,5.40
2019-02-06T19:55:16.432Z,6.03
2019-02-06T19:58:05.701Z,6.70
2019-02-06T20:00:53.870Z,6.83
2019-02-06T20:03:41.504Z,5.77
2019-02-06T20:06:30.938Z,6.50
2019-02-06T20:09:19.228Z,6.57
2019-02-06T20:12:06.847Z,6.60
2019-02-06T20:14:55.510Z,6.43
2019-02-06T20:17:44.022Z,7.87
2019-02-06T20:20:31.945Z,7.10
2019-02-06T20:23:19.600Z,6.90
2019-02-06T20:26:08.288Z,7.40
2019-02-06T20:28:57.060Z,7.73
2019-02-06T20:31:45.644Z,38.23
2019-02-06T20:34:33.788Z,11.50
2019-02-06T20:37:22.560Z,11.27
2019-02-06T20:40:14.089Z,35.23
2019-02-06T20:43:02.083Z,9.90
2019-02-06T20:45:50.331Z,6.93
2019-02-06T20:48:39.344Z,7.77
2019-02-06T20:51:28.099Z,7.87
2019-02-06T20:54:16.580Z,8.13
2019-02-06T20:57:12.409Z,7.57
2019-02-06T20:59:54.724Z,7.70
2019-02-06T21:02:43.061Z,7.20
2019-02-06T21:05:31.633Z,8.17
2019-02-06T21:08:20.694Z,7.80
2019-02-06T21:11:09.397Z,7.27
2019-02-06T21:13:58.251Z,7.60
2019-02-06T21:16:46.243Z,7.40
2019-02-06T21:19:34.529Z,10.50
2019-02-06T21:22:23.308Z,7.70
2019-02-06T21:25:12.984Z,8.80
2019-02-06T21:28:01.264Z,7.73
2019-02-06T21:30:49.667Z,7.93
2019-02-06T21:33:37.749Z,7.80
2019-02-06T21:36:25.793Z,7.53
2019-02-06T21:39:13.686Z,7.13
2019-02-06T21:42:02.277Z,8.10
2019-02-06T21:44:50.715Z,8.13
2019-02-06T21:47:38.749Z,7.60
2019-02-06T21:50:27.340Z,7.33
2019-02-06T21:53:16.291Z,8.63
2019-02-06T21:56:04.355Z,7.87
2019-02-06T21:58:53.131Z,7.47
2019-02-06T22:01:41.677Z,8.37
2019-02-06T22:04:30.291Z,6.87
2019-02-06T22:07:18.772Z,7.70
2019-02-06T22:10:08.234Z,8.10
2019-02-06T22:12:56.233Z,7.30
2019-02-06T22:15:44.050Z,7.93
2019-02-06T22:18:32.784Z,6.60
2019-02-06T22:21:20.689Z,6.80
2019-02-06T22:24:08.809Z,7.40
2019-02-06T22:26:57.089Z,6.90
2019-02-06T22:29:45.242Z,7.17
2019-02-06T22:32:33.984Z,6.83
2019-02-06T22:35:21.807Z,7.07
2019-02-06T22:38:10.348Z,7.27
2019-02-06T22:40:58.464Z,8.10
2019-02-06T22:43:47.359Z,8.00
2019-02-06T22:46:36.507Z,7.23
2019-02-06T22:49:24.427Z,6.87
2019-02-06T22:52:13.331Z,7.53
2019-02-06T22:55:01.583Z,7.43
2019-02-06T22:57:49.227Z,7.70
2019-02-06T23:01:13.552Z,7.80
2019-02-06T23:04:01.867Z,7.97
2019-02-06T23:06:50.206Z,9.03
2019-02-06T23:09:38.240Z,8.33
2019-02-06T23:12:27.418Z,8.33
2019-02-06T23:15:16.112Z,7.80
2019-02-06T23:18:04.838Z,8.60
2019-02-06T23:20:52.991Z,9.80
2019-02-06T23:23:41.052Z,8.93
2019-02-06T23:26:28.807Z,9.07
2019-02-06T23:29:17.200Z,8.20
2019-02-06T23:32:05.887Z,8.87
2019-02-06T23:34:54.322Z,7.97
2019-02-06T23:37:42.707Z,8.77
2019-02-06T23:40:31.106Z,8.43
2019-02-06T23:43:19.151Z,7.90
2019-02-06T23:46:06.891Z,8.13
2019-02-06T23:48:54.915Z,9.10
2019-02-06T23:51:43.244Z,8.67
2019-02-06T23:54:31.459Z,9.07
2019-02-06T23:57:19.338Z,9.37
